Time;durP1;ratioP1;P1;durP2;ratioP2;P2;SDS_P1;SDS_P2;PMS_P1;PMS_P2;Temp;Humidity;BMP_temperature;BMP_pressure;BME280_temperature;BME280_humidity;BME280_pressure;Samples;Min_cycle;Max_cycle;Signal;HPM_P1;HPM_P2
2022/07/03 00:02:33;;;;;;;;;17.00;15.40;;;;;24.41;51.26;99359.19;6264568;27;97390;-56
2022/07/03 00:05:36;;;;;;;;;15.60;15.00;;;;;24.40;51.40;99354.78;6264776;27;97358;-53
2022/07/03 00:08:40;;;;;;;;;15.80;14.80;;;;;24.41;51.43;99348.16;6265095;27;96326;-53
2022/07/03 00:11:44;;;;;;;;;17.75;16.00;;;;;24.43;51.71;99351.44;6264895;27;96709;-56
2022/07/03 00:14:51;;;;;;;;;18.80;16.40;;;;;24.42;51.82;99356.13;6264438;27;99286;-56
2022/07/03 00:17:54;;;;;;;;;17.00;17.00;;;;;24.43;51.57;99351.44;6263454;27;98628;-55
2022/07/03 00:21:01;;;;;;;;;19.00;17.00;;;;;24.42;51.78;99347.06;6263895;27;97147;-54
2022/07/03 00:24:10;;;;;;;;;16.80;16.00;;;;;24.43;51.98;99349.50;6264257;27;96878;-54
2022/07/03 00:27:16;;;;;;;;;16.00;14.60;;;;;24.42;51.97;99345.13;6253565;27;97086;-58
2022/07/03 00:30:21;;;;;;;;;17.00;16.00;;;;;24.43;51.80;99346.75;6264078;27;96750;-56
2022/07/03 00:33:29;;;;;;;;;19.60;18.00;;;;;24.42;51.81;99347.88;6246178;27;97872;-53
2022/07/03 00:36:36;;;;;;;;;19.00;18.00;;;;;24.40;52.00;99341.81;6264258;27;96950;-57
2022/07/03 00:39:43;;;;;;;;;17.20;15.20;;;;;24.37;52.07;99339.69;6264104;27;98741;-56
2022/07/03 00:42:51;;;;;;;;;20.00;18.00;;;;;24.36;52.28;99338.03;6263259;27;97080;-53
2022/07/03 00:46:07;;;;;;;;;17.00;16.00;;;;;24.33;52.00;99333.16;6262133;27;96758;-56
2022/07/03 00:49:11;;;;;;;;;16.40;16.00;;;;;24.35;52.16;99335.56;6251376;27;97370;-56
2022/07/03 00:52:16;;;;;;;;;17.60;15.40;;;;;24.34;52.08;99326.50;6264057;27;96897;-57
2022/07/03 00:55:22;;;;;;;;;18.00;16.00;;;;;24.31;52.28;99316.09;6263344;27;97561;-57
2022/07/03 00:58:27;;;;;;;;;18.00;17.00;;;;;24.34;52.34;99320.16;6262935;27;97464;-55
2022/07/03 01:01:35;;;;;;;;;16.00;15.20;;;;;24.15;52.23;99287.94;6264038;27;96360;-54
2022/07/03 01:04:47;;;;;;;;;17.80;16.80;;;;;24.33;52.29;99310.28;6262135;27;96871;-58
2022/07/03 01:08:05;;;;;;;;;18.00;17.00;;;;;24.32;52.27;99309.47;6257431;27;97495;-57
2022/07/03 01:11:16;;;;;;;;;16.00;15.60;;;;;24.18;52.49;99281.03;6263682;27;97751;-53
2022/07/03 01:14:33;;;;;;;;;17.00;15.20;;;;;24.36;52.67;99298.66;6262743;27;98445;-54
2022/07/03 01:17:40;;;;;;;;;18.00;17.60;;;;;24.24;52.53;99282.56;6263051;27;97060;-54
2022/07/03 01:20:50;;;;;;;;;18.80;17.80;;;;;24.40;52.69;99294.97;6262688;27;96968;-57
2022/07/03 01:24:25;;;;;;;;;18.00;16.00;;;;;24.37;52.40;99301.09;6252071;27;97312;-54
2022/07/03 01:27:35;;;;;;;;;17.80;15.80;;;;;24.35;52.65;99297.81;6258088;27;96356;-57
2022/07/03 01:30:41;;;;;;;;;20.40;18.00;;;;;24.34;52.80;99292.59;6262362;27;96526;-57
2022/07/03 01:33:46;;;;;;;;;17.60;16.00;;;;;24.35;52.60;99295.06;6258022;27;96920;-54
2022/07/03 01:36:55;;;;;;;;;15.50;14.00;;;;;24.38;52.42;99293.66;6262567;27;97397;-54
2022/07/03 01:39:59;;;;;;;;;15.00;14.00;;;;;24.38;52.55;99288.97;6261626;27;97329;-54
2022/07/03 01:43:06;;;;;;;;;14.60;14.00;;;;;24.46;52.58;99290.19;6261435;27;97418;-55
2022/07/03 01:46:12;;;;;;;;;15.00;12.80;;;;;24.47;52.28;99289.91;6262724;27;97560;-55
2022/07/03 01:49:19;;;;;;;;;16.00;14.20;;;;;24.48;52.23;99297.03;6263153;27;98369;-55
2022/07/03 01:52:23;;;;;;;;;13.00;12.00;;;;;24.48;52.24;99294.28;6261765;27;96697;-59
2022/07/03 01:55:47;;;;;;;;;14.50;13.50;;;;;24.47;52.53;99292.66;6249138;27;96609;-55
2022/07/03 01:58:52;;;;;;;;;15.00;14.50;;;;;24.44;52.38;99289.66;6261848;27;97701;-56
2022/07/03 02:02:09;;;;;;;;;17.40;15.00;;;;;24.43;52.56;99294.38;6255267;27;96766;-57
2022/07/03 02:05:24;;;;;;;;;15.00;14.00;;;;;24.42;52.79;99283.66;6263018;27;97800;-56
2022/07/03 02:08:37;;;;;;;;;12.50;12.50;;;;;24.44;52.40;99290.50;6261860;27;98096;-57
2022/07/03 02:11:44;;;;;;;;;14.50;14.00;;;;;24.43;52.74;99283.38;6262294;27;98006;-56
2022/07/03 02:14:59;;;;;;;;;14.00;14.00;;;;;24.45;52.45;99291.31;6262657;27;97459;-57
2022/07/03 02:18:12;;;;;;;;;12.60;12.60;;;;;24.45;52.41;99286.63;6261867;27;97666;-57
2022/07/03 02:21:20;;;;;;;;;17.00;16.00;;;;;24.41;52.32;99285.59;6262827;27;96883;-58
2022/07/03 02:24:27;;;;;;;;;14.40;14.00;;;;;24.41;52.60;99285.59;6261800;27;96999;-57
2022/07/03 02:27:42;;;;;;;;;15.20;14.80;;;;;24.42;52.43;99289.16;6261606;27;96724;-55
2022/07/03 02:30:52;;;;;;;;;17.00;17.00;;;;;24.41;52.36;99282.03;6260343;27;97129;-57
2022/07/03 02:33:59;;;;;;;;;16.40;15.40;;;;;24.36;52.35;99277.41;6262476;27;96952;-54
2022/07/03 02:37:13;;;;;;;;;17.00;14.50;;;;;24.33;52.19;99271.69;6262146;27;97421;-59
2022/07/03 02:40:25;;;;;;;;;17.00;15.00;;;;;24.33;52.65;99257.91;6261436;27;97054;-58
2022/07/03 02:43:35;;;;;;;;;17.00;17.00;;;;;24.33;52.50;99258.75;6260191;27;97533;-54
2022/07/03 02:46:50;;;;;;;;;15.75;14.75;;;;;24.31;52.53;99268.41;6259483;27;98621;-58
2022/07/03 02:50:03;;;;;;;;;14.50;14.50;;;;;24.28;52.67;99272.59;6260657;27;96578;-53
2022/07/03 02:53:16;;;;;;;;;16.00;16.00;;;;;24.26;52.70;99265.75;6260103;27;97056;-57
2022/07/03 02:56:28;;;;;;;;;16.60;14.60;;;;;24.30;52.99;99269.53;6261889;27;98941;-57
2022/07/03 02:59:45;;;;;;;;;15.60;14.60;;;;;24.23;52.72;99263.59;6261761;27;97442;-54
2022/07/03 03:02:55;;;;;;;;;14.40;13.80;;;;;24.31;52.92;99269.25;6260662;27;96617;-57
2022/07/03 03:06:03;;;;;;;;;17.00;16.00;;;;;24.24;52.99;99268.00;6261914;27;97410;-55
2022/07/03 03:09:15;;;;;;;;;16.00;14.40;;;;;24.15;53.15;99265.06;6261286;27;96936;-59
2022/07/03 03:12:29;;;;;;;;;15.40;15.00;;;;;24.13;53.37;99264.56;6261856;27;97355;-56
2022/07/03 03:15:34;;;;;;;;;16.00;14.50;;;;;24.16;53.63;99266.72;6261365;27;96580;-55
2022/07/03 03:18:41;;;;;;;;;13.50;13.00;;;;;24.22;53.51;99268.28;6260974;27;96586;-55
2022/07/03 03:21:57;;;;;;;;;14.40;14.40;;;;;24.26;53.48;99261.06;6262918;27;97452;-57
2022/07/03 03:25:02;;;;;;;;;14.00;13.00;;;;;24.06;53.01;99231.06;6265809;27;97960;-57
2022/07/03 03:28:05;;;;;;;;;14.20;13.80;;;;;24.30;52.95;99267.59;6265338;27;96538;-52
2022/07/03 03:31:09;;;;;;;;;13.80;13.00;;;;;24.32;53.22;99264.56;6264377;27;97059;-57
2022/07/03 03:34:16;;;;;;;;;13.00;12.00;;;;;24.36;53.13;99262.81;6264118;27;97317;-55
2022/07/03 03:37:19;;;;;;;;;13.20;12.60;;;;;24.36;52.74;99260.88;6265559;27;96881;-54
2022/07/03 03:40:23;;;;;;;;;13.50;13.00;;;;;24.37;52.81;99273.53;6264120;27;96609;-57
2022/07/03 03:43:26;;;;;;;;;15.60;14.60;;;;;24.39;52.95;99267.72;6265077;27;96513;-51
2022/07/03 03:46:29;;;;;;;;;16.40;15.00;;;;;24.39;52.90;99267.72;6265422;27;97449;-53
2022/07/03 03:49:34;;;;;;;;;15.00;14.00;;;;;24.42;53.02;99262.44;6264185;27;97367;-54
2022/07/03 03:52:38;;;;;;;;;14.60;13.60;;;;;24.47;53.06;99256.81;6259104;27;97197;-56
2022/07/03 03:55:54;;;;;;;;;13.50;11.50;;;;;24.59;52.61;99267.34;6264530;27;96572;-56
2022/07/03 03:58:57;;;;;;;;;14.00;12.20;;;;;24.63;52.45;99256.53;6259628;27;96586;-56
2022/07/03 04:02:01;;;;;;;;;15.00;14.00;;;;;24.68;52.27;99259.22;6263751;27;97557;-53
2022/07/03 04:05:07;;;;;;;;;15.50;15.00;;;;;24.71;52.04;99256.66;6264333;27;97445;-56
2022/07/03 04:08:10;;;;;;;;;15.00;14.00;;;;;24.77;52.05;99263.72;6264664;27;96943;-55
2022/07/03 04:11:14;;;;;;;;;14.00;14.00;;;;;24.81;51.93;99259.22;6264577;27;96816;-57
2022/07/03 04:14:17;;;;;;;;;15.00;14.00;;;;;24.85;51.80;99260.22;6263209;27;96653;-57
2022/07/03 04:17:20;;;;;;;;;12.80;12.00;;;;;24.94;51.56;99258.41;6263086;27;98524;-54
2022/07/03 04:20:28;;;;;;;;;13.00;12.00;;;;;24.98;51.34;99259.44;6263421;27;96634;-55
2022/07/03 04:23:31;;;;;;;;;13.00;12.75;;;;;25.14;51.07;99270.97;6261638;27;96595;-53
2022/07/03 04:26:35;;;;;;;;;12.00;11.00;;;;;25.23;50.73;99269.13;6263000;27;97479;-53
2022/07/03 04:29:38;;;;;;;;;13.40;13.00;;;;;25.29;50.42;99269.84;6263663;27;97183;-53
2022/07/03 04:32:43;;;;;;;;;15.00;11.80;;;;;25.34;50.50;99273.31;6260707;27;98124;-57
2022/07/03 04:35:48;;;;;;;;;12.00;12.00;;;;;25.34;50.36;99276.06;6262999;27;97405;-52
2022/07/03 04:38:51;;;;;;;;;13.00;11.80;;;;;25.39;50.24;99272.38;6262831;27;97464;-55
2022/07/03 04:41:54;;;;;;;;;12.25;12.00;;;;;25.43;50.11;99257.63;6263656;27;97436;-57
2022/07/03 04:44:58;;;;;;;;;14.40;14.40;;;;;25.46;49.97;99268.03;6263973;27;98059;-51
2022/07/03 04:48:03;;;;;;;;;15.50;14.00;;;;;25.50;50.04;99264.69;6262615;27;97989;-54
2022/07/03 04:51:08;;;;;;;;;14.50;13.50;;;;;25.54;50.26;99251.88;6261001;27;97443;-54
2022/07/03 04:54:11;;;;;;;;;13.60;12.60;;;;;25.59;50.06;99252.63;6260183;27;96812;-54
2022/07/03 04:57:15;;;;;;;;;14.60;13.00;;;;;25.67;49.72;99243.59;6260796;27;98430;-55
2022/07/03 05:00:18;;;;;;;;;13.50;12.50;;;;;25.77;49.54;99246.09;6257914;27;98027;-53
2022/07/03 05:03:21;;;;;;;;;14.60;13.00;;;;;25.89;49.07;99253.84;6259738;27;98028;-54
2022/07/03 05:06:26;;;;;;;;;15.00;14.00;;;;;25.95;49.17;99249.03;6263505;27;97412;-52
2022/07/03 05:09:30;;;;;;;;;14.00;14.00;;;;;26.04;49.19;99241.59;6262104;27;97439;-56
2022/07/03 05:12:33;;;;;;;;;13.60;13.00;;;;;26.14;48.93;99238.59;6260733;27;96854;-53
2022/07/03 05:15:43;;;;;;;;;15.00;14.50;;;;;26.22;48.46;99235.09;6261602;27;96894;-58
2022/07/03 05:18:46;;;;;;;;;17.40;16.40;;;;;26.23;48.36;99231.19;6262430;27;97342;-57
2022/07/03 05:21:51;;;;;;;;;18.00;17.00;;;;;26.21;48.30;99227.88;6262195;27;96971;-58
2022/07/03 05:24:54;;;;;;;;;16.00;16.00;;;;;26.22;48.63;99230.38;6262666;27;96949;-56
2022/07/03 05:27:59;;;;;;;;;16.00;15.00;;;;;26.30;48.89;99232.38;6261469;27;97000;-56
2022/07/03 05:31:02;;;;;;;;;15.00;15.00;;;;;26.36;48.15;99226.69;6258734;27;97447;-55
2022/07/03 05:34:05;;;;;;;;;14.40;14.00;;;;;26.43;48.51;99232.59;6261149;27;96875;-58
2022/07/03 05:37:10;;;;;;;;;17.25;16.50;;;;;26.56;48.14;99238.03;6263055;27;96569;-53
2022/07/03 05:40:14;;;;;;;;;14.80;12.60;;;;;26.68;47.61;99234.69;6262550;27;96815;-57
2022/07/03 05:43:18;;;;;;;;;15.00;14.00;;;;;26.76;47.66;99235.84;6262451;27;96651;-58
2022/07/03 05:46:21;;;;;;;;;13.40;12.60;;;;;26.85;47.44;99231.97;6261102;27;97573;-57
2022/07/03 05:49:24;;;;;;;;;15.00;14.00;;;;;26.99;47.06;99237.41;6262952;27;96573;-59
2022/07/03 05:52:29;;;;;;;;;12.00;11.00;;;;;27.04;47.33;99242.78;6262361;27;97113;-55
2022/07/03 05:55:32;;;;;;;;;13.00;12.50;;;;;27.08;46.80;99236.28;6257994;27;96623;-56
2022/07/03 05:58:36;;;;;;;;;14.40;13.00;;;;;27.17;47.06;99237.13;6231180;27;97435;-58
2022/07/03 06:01:39;;;;;;;;;14.25;14.00;;;;;27.26;46.54;99225.25;6259179;27;98194;-57
2022/07/03 06:04:43;;;;;;;;;15.60;14.00;;;;;27.37;46.58;99237.63;6257356;27;97040;-55
2022/07/03 06:07:49;;;;;;;;;14.00;13.00;;;;;27.51;46.55;99238.38;6257509;27;97958;-56
2022/07/03 06:10:52;;;;;;;;;13.00;12.00;;;;;27.68;45.84;99243.09;6259822;27;97094;-59
2022/07/03 06:13:56;;;;;;;;;13.00;13.00;;;;;27.83;45.51;99231.50;6257624;27;98640;-56
2022/07/03 06:16:59;;;;;;;;;12.00;12.00;;;;;27.87;45.63;99222.22;6259100;27;97462;-56
2022/07/03 06:20:02;;;;;;;;;14.00;14.00;;;;;28.15;44.76;99236.53;6261816;27;97430;-55
2022/07/03 06:23:07;;;;;;;;;12.75;12.25;;;;;28.22;44.19;99239.66;6260515;27;96437;-58
2022/07/03 06:26:31;;;;;;;;;15.50;14.50;;;;;28.27;43.73;99242.25;6258410;27;97379;-55
2022/07/03 06:29:34;;;;;;;;;13.00;13.00;;;;;28.27;43.93;99235.88;6260746;27;97419;-54
2022/07/03 06:32:37;;;;;;;;;13.75;12.25;;;;;28.33;44.27;99229.84;6258674;27;96903;-55
2022/07/03 06:35:41;;;;;;;;;12.50;12.50;;;;;28.46;43.91;99238.28;6257758;27;97860;-58
2022/07/03 06:38:45;;;;;;;;;13.50;13.00;;;;;28.61;43.34;99226.63;6257389;27;97687;-53
2022/07/03 06:41:49;;;;;;;;;15.00;14.00;;;;;28.73;42.81;99226.78;6258569;27;96846;-59
2022/07/03 06:44:52;;;;;;;;;12.20;12.00;;;;;28.79;42.57;99223.47;6258963;27;96682;-54
2022/07/03 06:47:55;;;;;;;;;12.25;11.00;;;;;28.74;42.78;99192.31;6256160;27;97809;-57
2022/07/03 06:50:58;;;;;;;;;11.80;10.00;;;;;28.99;42.25;99234.97;6258248;27;96719;-55
2022/07/03 06:54:04;;;;;;;;;15.00;15.00;;;;;29.12;42.13;99225.59;6260636;27;96679;-56
2022/07/03 06:57:07;;;;;;;;;13.60;13.00;;;;;29.31;41.94;99214.91;6261592;27;97105;-55
2022/07/03 07:00:12;;;;;;;;;13.00;12.00;;;;;29.47;41.09;99229.78;6263661;27;97436;-56
2022/07/03 07:03:15;;;;;;;;;12.80;11.00;;;;;29.45;41.31;99226.56;6265137;27;96585;-58
2022/07/03 07:06:18;;;;;;;;;10.80;10.80;;;;;29.53;40.26;99220.09;6262386;27;96868;-56
2022/07/03 07:09:23;;;;;;;;;11.60;11.60;;;;;29.58;40.59;99216.31;6262818;27;97529;-60
2022/07/03 07:12:27;;;;;;;;;13.25;12.00;;;;;29.68;40.40;99213.94;6263712;27;97495;-53
2022/07/03 07:15:32;;;;;;;;;12.00;11.00;;;;;29.73;39.48;99201.81;6262743;27;97737;-55
2022/07/03 07:18:35;;;;;;;;;9.25;9.25;;;;;29.84;39.93;99203.00;6262252;27;97896;-51
2022/07/03 07:21:39;;;;;;;;;9.80;9.80;;;;;29.95;39.17;99215.38;6257149;27;97826;-53
2022/07/03 07:24:43;;;;;;;;;12.00;12.00;;;;;30.00;38.59;99201.25;6262705;27;97583;-49
2022/07/03 07:27:47;;;;;;;;;13.00;13.00;;;;;30.02;39.19;99207.28;6260953;27;97766;-53
2022/07/03 07:30:53;;;;;;;;;11.40;11.40;;;;;30.13;39.36;99202.09;6260652;27;97408;-53
2022/07/03 07:33:57;;;;;;;;;14.00;13.67;;;;;30.29;38.38;99207.81;6258647;27;96675;-54
2022/07/03 07:37:00;;;;;;;;;9.00;9.00;;;;;30.38;37.84;99208.53;6261121;27;96617;-61
2022/07/03 07:40:07;;;;;;;;;11.00;10.00;;;;;30.44;37.73;99201.59;6261303;27;97029;-69
2022/07/03 07:43:10;;;;;;;;;10.00;9.20;;;;;30.41;37.33;99189.19;6261129;27;97249;-61
2022/07/03 07:46:13;;;;;;;;;10.25;10.00;;;;;30.48;37.29;99185.88;6244040;27;97768;-57
2022/07/03 07:49:17;;;;;;;;;10.00;9.00;;;;;30.53;37.26;99191.22;6259966;27;96747;-62
2022/07/03 07:52:22;;;;;;;;;10.50;10.50;;;;;30.48;36.47;99191.44;6240005;27;96730;-58
2022/07/03 07:55:27;;;;;;;;;11.00;11.00;;;;;30.44;36.30;99191.28;6261166;27;97420;-58
2022/07/03 07:58:30;;;;;;;;;10.20;9.60;;;;;30.48;36.99;99189.47;6257324;27;97451;-59
2022/07/03 08:08:21;;;;;;;;;13.60;12.00;;;;;30.91;36.78;99191.69;6261688;27;96959;-58
2022/07/03 08:11:27;;;;;;;;;10.00;10.00;;;;;31.11;36.43;99178.00;6250069;27;97428;-63
2022/07/03 08:14:31;;;;;;;;;10.80;10.80;;;;;31.28;35.82;99177.72;6260476;27;96979;-60
2022/07/03 08:17:34;;;;;;;;;12.00;11.00;;;;;31.37;35.92;99181.97;6261636;27;97456;-57
2022/07/03 08:20:38;;;;;;;;;10.60;10.60;;;;;31.26;35.50;99172.53;6260331;27;97700;-61
2022/07/03 08:23:41;;;;;;;;;10.60;10.00;;;;;31.19;35.92;99177.84;6262362;27;97016;-64
2022/07/03 08:26:46;;;;;;;;;11.50;11.50;;;;;31.23;36.28;99180.75;6263109;27;97549;-67
2022/07/03 08:29:49;;;;;;;;;10.00;9.60;;;;;31.30;35.36;99172.63;6261536;27;97220;-60
2022/07/03 08:32:55;;;;;;;;;11.00;11.00;;;;;31.33;35.76;99180.25;6256797;27;96655;-60
2022/07/03 08:35:59;;;;;;;;;11.00;11.00;;;;;31.44;36.24;99175.81;6261152;27;97223;-65
2022/07/03 08:39:02;;;;;;;;;12.75;12.00;;;;;31.68;36.23;99178.56;6263191;27;96611;-65
2022/07/03 08:42:08;;;;;;;;;10.00;10.00;;;;;31.89;35.40;99172.78;6261417;27;97532;-61
2022/07/03 08:45:15;;;;;;;;;11.00;11.00;;;;;32.00;35.27;99168.31;6264009;27;97423;-62
2022/07/03 08:48:21;;;;;;;;;12.80;11.80;;;;;32.15;35.20;99169.53;6262132;27;98071;-63
2022/07/03 08:51:26;;;;;;;;;12.50;11.75;;;;;32.34;34.96;99164.06;6261684;27;96629;-59
2022/07/03 08:54:31;;;;;;;;;10.00;9.20;;;;;32.48;34.07;99161.63;6259639;27;97037;-63
2022/07/03 08:57:37;;;;;;;;;12.00;11.00;;;;;32.65;34.28;99160.47;6262509;27;97062;-62
2022/07/03 09:00:41;;;;;;;;;9.00;8.80;;;;;32.78;34.01;99158.41;6262467;27;97190;-62
2022/07/03 09:03:46;;;;;;;;;9.40;9.40;;;;;32.99;33.30;99156.91;6258698;27;98159;-63
2022/07/03 09:06:51;;;;;;;;;11.80;11.00;;;;;33.17;33.30;99153.75;6258647;27;97487;-65
2022/07/03 09:10:00;;;;;;;;;11.00;11.00;;;;;33.33;32.42;99152.50;6258673;27;97500;-59
2022/07/03 09:13:05;;;;;;;;;10.00;10.00;;;;;33.41;32.24;99147.91;6260427;27;97827;-59
2022/07/03 09:16:16;;;;;;;;;11.80;10.80;;;;;33.55;31.93;99139.00;6253780;27;96704;-59
2022/07/03 09:19:40;;;;;;;;;10.00;9.75;;;;;33.72;31.88;99136.56;6258532;27;97428;-64
2022/07/03 09:22:43;;;;;;;;;10.40;10.00;;;;;33.74;31.17;99145.41;6259364;27;97306;-59
2022/07/03 09:25:55;;;;;;;;;10.00;10.00;;;;;33.83;31.69;99145.19;6260120;27;97485;-61
2022/07/03 09:29:00;;;;;;;;;11.00;10.75;;;;;33.97;31.47;99150.25;6248761;27;99489;-63
2022/07/03 09:32:03;;;;;;;;;11.00;10.60;;;;;34.06;30.70;99154.44;6257918;27;97470;-56
2022/07/03 09:35:17;;;;;;;;;12.00;10.00;;;;;33.97;30.61;99141.84;6260004;27;96507;-59
2022/07/03 09:38:21;;;;;;;;;10.00;10.00;;;;;34.00;31.64;99147.53;6238003;27;96996;-64
2022/07/03 09:41:24;;;;;;;;;10.67;9.67;;;;;34.04;31.10;99139.19;6260528;27;97464;-57
2022/07/03 09:44:37;;;;;;;;;9.00;8.00;;;;;34.12;30.99;99138.94;6260812;27;97502;-65
2022/07/03 09:47:40;;;;;;;;;9.00;9.00;;;;;34.27;31.15;99146.44;6254482;27;96684;-60
2022/07/03 09:50:47;;;;;;;;;11.40;11.40;;;;;34.45;30.21;99140.38;6260616;27;96994;-60
2022/07/03 09:53:53;;;;;;;;;11.00;10.00;;;;;34.63;31.12;99145.06;6261219;27;97174;-67
2022/07/03 09:57:00;;;;;;;;;10.40;10.00;;;;;34.83;30.01;99139.41;6260975;27;96749;-63
2022/07/03 10:00:16;;;;;;;;;13.00;11.50;;;;;35.05;29.87;99130.91;6260147;27;97165;-61
2022/07/03 10:03:21;;;;;;;;;9.40;9.00;;;;;35.19;28.91;99119.94;6260328;27;97392;-63
2022/07/03 10:06:24;;;;;;;;;11.50;11.00;;;;;35.32;29.07;99116.91;6241350;27;97748;-55
2022/07/03 10:09:30;;;;;;;;;12.00;11.00;;;;;35.34;28.83;99115.31;6258219;27;97369;-57
2022/07/03 10:12:33;;;;;;;;;10.00;9.33;;;;;35.36;28.92;99121.38;6257188;27;97129;-60
2022/07/03 10:15:39;;;;;;;;;10.00;10.00;;;;;35.39;28.94;99117.78;6249344;27;98008;-64
2022/07/03 10:18:48;;;;;;;;;13.00;12.00;;;;;35.55;28.73;99118.41;6260995;27;97430;-62
2022/07/03 10:21:54;;;;;;;;;11.00;11.00;;;;;35.66;28.45;99117.75;6260345;27;97870;-64
2022/07/03 10:25:00;;;;;;;;;10.00;10.00;;;;;35.58;28.36;99112.00;6259756;27;97461;-59
2022/07/03 10:28:04;;;;;;;;;11.40;11.00;;;;;35.54;28.91;99104.75;6258107;27;97066;-65
2022/07/03 10:31:09;;;;;;;;;10.80;9.80;;;;;35.63;27.73;99108.06;6253819;27;97415;-56
2022/07/03 10:34:16;;;;;;;;;11.00;11.00;;;;;35.70;28.62;99093.34;6257166;27;97531;-62
2022/07/03 10:37:22;;;;;;;;;11.00;11.00;;;;;35.76;28.33;99098.25;6255962;27;98022;-60
2022/07/03 10:47:44;;;;;;;;;10.00;9.00;;;;;36.09;27.40;99100.16;6258466;27;96685;-58
2022/07/03 10:50:47;;;;;;;;;11.00;10.00;;;;;36.07;27.26;99087.72;6255852;27;97453;-63
2022/07/03 10:53:50;;;;;;;;;11.00;10.50;;;;;36.04;26.98;99078.06;6259531;27;97353;-64
2022/07/03 10:57:13;;;;;;;;;12.00;11.60;;;;;36.13;27.72;99081.38;6257081;27;97134;-61
2022/07/03 11:00:19;;;;;;;;;9.60;9.00;;;;;36.18;27.67;99054.97;6257213;27;97745;-62
2022/07/03 11:03:56;;;;;;;;;12.60;12.00;;;;;36.32;26.63;99074.72;6228151;27;97836;-59
2022/07/03 11:07:11;;;;;;;;;11.80;11.00;;;;;36.30;26.74;99074.31;6258934;27;97451;-59
2022/07/03 11:10:31;;;;;;;;;12.00;11.60;;;;;36.27;26.74;99063.84;6256180;27;96729;-59
2022/07/03 11:13:34;;;;;;;;;10.00;10.00;;;;;36.20;27.10;99064.63;6257637;27;97125;-63
2022/07/03 11:16:38;;;;;;;;;13.20;12.80;;;;;36.06;26.79;99025.19;6228596;27;96685;-64
2022/07/03 11:19:43;;;;;;;;;10.00;9.60;;;;;36.33;26.62;99049.06;6258040;27;98361;-65
2022/07/03 11:22:54;;;;;;;;;10.00;10.00;;;;;36.43;27.03;99050.34;6238616;27;99526;-62
2022/07/03 11:25:58;;;;;;;;;11.80;11.00;;;;;36.42;26.35;99052.34;6251385;27;97242;-59
2022/07/03 11:29:02;;;;;;;;;11.00;11.00;;;;;36.44;26.50;99043.53;6256390;27;97004;-60
2022/07/03 11:32:38;;;;;;;;;11.75;10.00;;;;;36.45;26.62;99045.16;6240352;27;97119;-62
2022/07/03 11:35:48;;;;;;;;;13.40;13.40;;;;;36.48;26.73;99053.59;6255825;27;96989;-61
2022/07/03 11:39:04;;;;;;;;;11.60;11.20;;;;;36.47;25.94;99048.38;6261014;27;97424;-57
2022/07/03 11:42:09;;;;;;;;;10.40;10.40;;;;;36.35;26.28;99035.47;6260131;27;97049;-61
2022/07/03 11:45:12;;;;;;;;;10.60;10.00;;;;;36.38;27.33;99042.28;6264850;27;96729;-62
2022/07/03 11:48:18;;;;;;;;;12.60;11.00;;;;;36.42;27.07;99048.72;6264951;27;96807;-61
2022/07/03 11:51:23;;;;;;;;;12.60;10.00;;;;;36.46;26.55;99047.56;6265262;27;96618;-61
2022/07/03 11:54:30;;;;;;;;;10.80;10.00;;;;;36.42;26.07;99040.31;6225447;27;98050;-64
2022/07/03 11:57:33;;;;;;;;;11.00;10.40;;;;;36.38;25.82;99040.28;6264534;27;97086;-55
2022/07/03 12:00:37;;;;;;;;;11.80;11.80;;;;;36.37;26.39;99037.88;6262772;27;97131;-59
2022/07/03 12:03:40;;;;;;;;;11.20;11.20;;;;;36.44;26.69;99032.31;6263594;27;97095;-61
2022/07/03 12:06:48;;;;;;;;;13.00;12.00;;;;;36.53;26.34;99020.72;6264143;27;97503;-60
2022/07/03 12:09:51;;;;;;;;;13.00;12.00;;;;;36.68;25.90;99025.28;6264366;27;96454;-60
2022/07/03 12:12:54;;;;;;;;;11.40;11.40;;;;;36.78;25.66;99030.16;6263504;27;96670;-60
2022/07/03 12:16:07;;;;;;;;;13.00;13.00;;;;;36.85;25.57;99024.53;6246009;27;98321;-66
2022/07/03 12:19:10;;;;;;;;;13.00;12.00;;;;;36.87;25.97;99016.53;6261145;27;96887;-61
2022/07/03 12:22:30;;;;;;;;;13.00;12.00;;;;;36.98;25.66;99010.97;6262705;27;96690;-62
2022/07/03 12:25:39;;;;;;;;;11.00;10.40;;;;;37.08;25.76;99001.81;6261836;27;97456;-62
2022/07/03 12:28:42;;;;;;;;;10.00;10.00;;;;;37.16;25.57;99006.25;6264034;27;96704;-61
2022/07/03 12:31:48;;;;;;;;;10.00;9.60;;;;;37.27;25.26;99001.47;6260880;27;97698;-62
2022/07/03 12:34:52;;;;;;;;;11.20;11.00;;;;;37.38;25.01;98998.69;6261706;27;97477;-64
2022/07/03 12:37:57;;;;;;;;;13.20;12.00;;;;;37.40;25.10;98994.28;6256998;27;97296;-63
2022/07/03 12:41:05;;;;;;;;;11.25;11.00;;;;;37.33;24.69;98991.47;6257569;27;97465;-63
2022/07/03 12:44:08;;;;;;;;;11.00;10.00;;;;;37.26;24.64;98992.22;6239185;27;96746;-60
2022/07/03 12:47:11;;;;;;;;;11.00;10.20;;;;;37.20;24.48;98985.38;6259117;27;98156;-60
2022/07/03 12:50:16;;;;;;;;;14.00;12.75;;;;;37.16;24.97;98983.75;6254143;27;97423;-60
2022/07/03 12:53:31;;;;;;;;;12.00;11.50;;;;;37.14;24.52;98986.97;6258291;27;97416;-61
2022/07/03 12:56:34;;;;;;;;;13.00;13.00;;;;;37.15;25.35;98987.78;6239774;27;97452;-59
2022/07/03 12:59:36;;;;;;;;;11.60;9.60;;;;;37.15;24.76;98988.56;6262402;27;97076;-61
2022/07/03 13:02:41;;;;;;;;;14.00;12.00;;;;;37.02;24.74;98972.44;6258538;27;97647;-61
2022/07/03 13:05:45;;;;;;;;;15.00;14.40;;;;;36.87;24.93;98969.56;6259958;27;97869;-62
2022/07/03 13:08:55;;;;;;;;;14.00;13.50;;;;;36.75;25.15;98969.13;6261913;27;96687;-63
2022/07/03 13:11:58;;;;;;;;;13.40;12.40;;;;;36.72;25.23;98969.91;6243025;27;97844;-61
2022/07/03 13:15:02;;;;;;;;;13.60;13.00;;;;;36.69;25.04;98963.09;6242372;27;96743;-59
2022/07/03 13:18:06;;;;;;;;;12.25;12.25;;;;;36.66;25.28;98957.44;6261729;27;96819;-59
2022/07/03 13:21:09;;;;;;;;;13.00;12.20;;;;;36.69;26.40;98963.09;6262147;27;96685;-58
2022/07/03 13:24:15;;;;;;;;;13.00;12.00;;;;;36.72;25.10;98959.47;6261569;27;96560;-58
2022/07/03 13:27:19;;;;;;;;;13.00;13.00;;;;;36.72;24.67;98953.03;6261965;27;97509;-60
2022/07/03 13:30:22;;;;;;;;;13.00;12.00;;;;;36.69;24.85;98953.84;6254077;27;97490;-60
2022/07/03 13:33:25;;;;;;;;;12.00;11.50;;;;;36.68;25.31;98955.84;6261384;27;97434;-61
2022/07/03 13:36:30;;;;;;;;;14.00;14.00;;;;;36.63;24.46;98956.22;6256034;27;98028;-57
2022/07/03 13:39:35;;;;;;;;;12.00;12.00;;;;;36.57;25.73;98954.13;6241156;27;97760;-62
2022/07/03 13:42:38;;;;;;;;;12.40;12.00;;;;;36.46;25.96;98946.47;6253941;27;96867;-60
2022/07/03 13:45:43;;;;;;;;;15.00;15.00;;;;;36.31;25.09;98941.97;6257621;27;97205;-62
2022/07/03 13:48:46;;;;;;;;;14.00;12.20;;;;;36.20;25.21;98946.72;6261677;27;97263;-58
2022/07/03 13:51:50;;;;;;;;;14.00;14.00;;;;;36.13;26.33;98932.63;6261298;27;96741;-61
2022/07/03 13:54:54;;;;;;;;;14.00;13.00;;;;;36.13;25.74;98927.00;6240279;27;97991;-58
2022/07/03 13:57:58;;;;;;;;;12.50;12.00;;;;;36.19;26.28;98925.47;6260818;27;97368;-57
2022/07/03 14:01:01;;;;;;;;;12.00;11.00;;;;;36.17;24.92;98927.03;6259860;27;97442;-66
2022/07/03 14:04:05;;;;;;;;;18.00;17.00;;;;;36.09;25.45;98931.78;6238636;27;97444;-59
2022/07/03 14:07:08;;;;;;;;;15.00;13.00;;;;;36.07;26.51;98922.94;6258893;27;97397;-65
2022/07/03 14:10:13;;;;;;;;;13.25;13.00;;;;;36.12;26.42;98924.59;6259626;27;97722;-61
2022/07/03 14:13:16;;;;;;;;;13.60;13.60;;;;;36.13;26.49;98924.22;6255132;27;98392;-58
2022/07/03 14:16:20;;;;;;;;;16.00;15.00;;;;;36.16;26.13;98914.22;6240925;27;97372;-59
2022/07/03 14:19:23;;;;;;;;;14.00;12.00;;;;;36.20;26.17;98904.63;6257318;27;97528;-59
2022/07/03 14:22:27;;;;;;;;;13.20;12.20;;;;;36.23;25.93;98912.25;6258503;27;97042;-58
2022/07/03 14:25:32;;;;;;;;;12.25;12.00;;;;;36.27;26.10;98913.06;6239981;27;101283;-60
2022/07/03 14:35:18;;;;;;;;;16.00;14.60;;;;;36.34;25.04;98899.06;6239734;27;97876;-59
2022/07/03 14:38:21;;;;;;;;;13.60;13.00;;;;;36.34;24.58;98901.88;6259273;27;96644;-59